Terminal Aerodrome Forecast
Issued by NWS

Home | Current Version | Previous Version | Text Only | Print | Product List | Glossary On
Versions: 1 2 3 4 5 6 7 8 9 10 11 12
224
FTUS45 KTFX 061739
TAFBZN
TAF
KBZN 061739Z 0618/0718 25022G32KT P6SM SCT050 BKN090
     FM070000 25015KT P6SM BKN120
     FM070300 24008KT P6SM BKN150=

USA.gov is the U.S. government's official web portal to all federal, state and local government web resources and services.